Holland Patent, New York
Current Conditions -  °F | °C
As of 3:18 PM on Thursday 18 Dec 2014 (Local Time) from KRME Reporting Station
Overcast Overcast  
Wind Chill: 20°   Ceiling: 1500
Heat Index: 31°   Visibility: 10mi
Dew Point: 27°   Wind: 15mph
Humidity: 85%   Direction: 280°W
Pressure: 29.99"   Gusts: NA
Location:  43.24°N, 75.26°W
Report Text: KRME 182018Z 28013KT 10SM OVC015 M01/M03 A2999 RMK AO2 SNE1956 P0000 T10061028
Loading
Personal Weather Stations






























Interactive Weather Map New forecast layout! Learn more

10-Day Weather Forecast

Advertisements
Track Severe Weather on mobile